This is the latest recevied weather packets stored in our database for station/object N9ALD. If no packets are shown the sender has not sent any weather packets the latest 10 day(s).
| Time | Temp. | Humidity | Pressure | Rain* | Wind** | Luminosity | Snow |
|---|---|---|---|---|---|---|---|
| 1777235995 | 22.78° C | 49% | 1012.1 hPa | 0 mm | - | 452 W/m² | - |
| 1777235691 | 22.22° C | 55% | 1012.2 hPa | 0 mm | - | 573 W/m² | - |
| 1777235388 | 22.78° C | 50% | 1012.2 hPa | 0 mm | - | 339 W/m² | - |
| 1777235084 | 22.78° C | 50% | 1012.1 hPa | 0 mm | - | 336 W/m² | - |
| 1777234780 | 22.22° C | 51% | 1012.2 hPa | 0 mm | - | 519 W/m² | - |
| 1777234477 | 21.67° C | 53% | 1012.3 hPa | 0 mm | - | 601 W/m² | - |
| 1777234177 | 22.22° C | 51% | 1012.4 hPa | 0 mm | - | 609 W/m² | - |
| 1777233873 | 21.67° C | 55% | 1012.7 hPa | 0 mm | - | 619 W/m² | - |
| 1777233570 | 22.22° C | 52% | 1012.6 hPa | 0 mm | - | 642 W/m² | - |
| 1777233269 | 21.67° C | 54% | 1012.6 hPa | 0 mm | - | 648 W/m² | - |
| 1777232965 | 21.11° C | 54% | 1012.6 hPa | 0 mm | - | 664 W/m² | - |
| 1777232662 | 21.11° C | 54% | 1012.6 hPa | 0 mm | - | 678 W/m² | - |
| 1777232361 | 21.11° C | 55% | 1012.7 hPa | 0 mm | - | 640 W/m² | - |
| 1777232057 | 21.67° C | 56% | 1012.6 hPa | 0 mm | - | 633 W/m² | - |
| 1777231754 | 22.22° C | 53% | 1012.6 hPa | 0 mm | - | 622 W/m² | - |
| 1777231451 | 21.67° C | 57% | 1012.8 hPa | 0 mm | - | 669 W/m² | - |
| 1777231147 | 20.56° C | 56% | 1012.8 hPa | 0 mm | - | 669 W/m² | - |
| 1777230843 | 20.56° C | 57% | 1012.9 hPa | 0 mm | - | 678 W/m² | - |
| 1777230538 | 20.56° C | 56% | 1012.8 hPa | 0 mm | - | 678 W/m² | - |
| 1777230234 | 20.56° C | 58% | 1013 hPa | 0 mm | - | 678 W/m² | - |
| 1777229931 | 21.11° C | 55% | 1012.8 hPa | 0 mm | - | 687 W/m² | - |
| 1777229627 | 21.11° C | 56% | 1013 hPa | 0 mm | - | 694 W/m² | - |
| 1777229324 | 21.11° C | 56% | 1013 hPa | 0 mm | - | 700 W/m² | - |
| 1777229022 | 20.56° C | 60% | 1013 hPa | 0 mm | - | 703 W/m² | - |
| 1777228718 | 20.56° C | 57% | 1013.1 hPa | 0 mm | - | 702 W/m² | - |
* Rain latest hour (hover to see other rain measurements)
** Current wind speed in m/s (hover to see current wind gust speed)